Time;durP1;ratioP1;P1;durP2;ratioP2;P2;SDS_P1;SDS_P2;PMS_P1;PMS_P2;Temp;Humidity;BMP_temperature;BMP_pressure;BME280_temperature;BME280_humidity;BME280_pressure;Samples;Min_cycle;Max_cycle;Signal;HPM_P1;HPM_P2
2022/03/19 00:00:34;;;;;;;3.13;2.23;;;14.90;52.50;;;;;;5045081;28;20189;-18
2022/03/19 00:03:00;;;;;;;3.13;2.10;;;14.90;52.50;;;;;;5068545;28;20214;-20
2022/03/19 00:05:26;;;;;;;2.87;2.30;;;14.90;52.50;;;;;;5068501;28;20187;-16
2022/03/19 00:07:55;;;;;;;3.00;2.20;;;14.90;52.60;;;;;;5066281;28;20167;-17
2022/03/19 00:10:22;;;;;;;2.33;1.87;;;14.90;52.50;;;;;;5048273;28;20183;-16
2022/03/19 00:12:49;;;;;;;2.97;2.27;;;14.90;52.90;;;;;;5048288;28;20182;-19
2022/03/19 00:15:16;;;;;;;3.93;2.17;;;14.90;52.50;;;;;;5055748;28;20567;-15
2022/03/19 00:17:42;;;;;;;3.40;2.03;;;14.80;52.80;;;;;;5047409;28;20191;-18
2022/03/19 00:20:08;;;;;;;3.00;2.07;;;14.80;52.40;;;;;;5064891;28;20189;-18
2022/03/19 00:22:36;;;;;;;4.03;2.27;;;14.80;52.50;;;;;;5043731;28;20198;-17
2022/03/19 00:25:02;;;;;;;2.57;2.00;;;14.80;52.50;;;;;;5064453;28;20182;-15
2022/03/19 00:27:28;;;;;;;3.20;2.30;;;14.80;52.50;;;;;;5048097;28;20252;-17
2022/03/19 00:29:53;;;;;;;3.23;2.03;;;14.80;52.50;;;;;;5063017;28;20489;-17
2022/03/19 00:32:19;;;;;;;3.00;2.17;;;14.80;52.40;;;;;;5051828;28;20232;-18
2022/03/19 00:34:45;;;;;;;3.27;2.13;;;14.80;52.50;;;;;;5056097;28;20182;-19
2022/03/19 00:37:10;;;;;;;4.47;2.20;;;14.80;52.50;;;;;;5056254;28;20175;-15
2022/03/19 00:39:36;;;;;;;2.60;2.03;;;14.80;52.50;;;;;;5056301;28;20175;-16
2022/03/19 00:42:02;;;;;;;2.77;2.03;;;14.70;52.40;;;;;;5056790;28;20754;-16
2022/03/19 00:44:28;;;;;;;4.57;2.10;;;14.70;52.50;;;;;;5070839;28;20218;-17
2022/03/19 00:46:54;;;;;;;3.07;2.17;;;14.70;52.50;;;;;;5073637;28;20175;-16
2022/03/19 00:49:19;;;;;;;3.30;2.17;;;14.70;52.60;;;;;;5056101;28;20269;-17
2022/03/19 00:51:45;;;;;;;2.70;2.10;;;14.70;52.50;;;;;;5073713;28;20571;-17
2022/03/19 00:54:12;;;;;;;2.13;1.90;;;14.70;52.50;;;;;;5060381;28;20181;-17
2022/03/19 00:56:38;;;;;;;3.33;2.10;;;14.70;52.50;;;;;;5054525;28;20381;-19
2022/03/19 00:59:04;;;;;;;3.20;2.20;;;14.70;52.60;;;;;;5058007;28;20175;-17
2022/03/19 01:01:30;;;;;;;2.93;1.87;;;14.70;52.50;;;;;;5081206;28;20181;-15
2022/03/19 01:03:56;;;;;;;2.90;2.50;;;14.70;52.40;;;;;;5074128;28;20286;-15
2022/03/19 01:06:22;;;;;;;2.87;2.10;;;14.60;52.40;;;;;;5057832;28;20761;-18
2022/03/19 01:08:48;;;;;;;3.37;2.10;;;14.70;52.50;;;;;;5057842;28;20286;-19
2022/03/19 01:11:14;;;;;;;2.97;2.00;;;14.60;52.40;;;;;;5057582;28;20241;-16
2022/03/19 01:13:39;;;;;;;4.17;2.17;;;14.60;52.40;;;;;;5073846;28;20242;-17
2022/03/19 01:16:05;;;;;;;4.27;2.57;;;14.60;52.40;;;;;;5098244;28;20464;-18
2022/03/19 01:18:31;;;;;;;3.03;2.10;;;14.60;52.50;;;;;;5079561;28;20168;-18
2022/03/19 01:20:57;;;;;;;3.40;2.20;;;14.60;52.40;;;;;;5077920;28;20181;-19
2022/03/19 01:23:23;;;;;;;3.87;2.30;;;14.60;52.50;;;;;;5058583;28;20202;-16
2022/03/19 01:25:49;;;;;;;2.37;2.03;;;14.60;52.50;;;;;;5077196;28;20194;-16
2022/03/19 01:28:15;;;;;;;2.90;2.10;;;14.60;52.50;;;;;;5075298;28;20782;-16
2022/03/19 01:30:42;;;;;;;3.40;2.20;;;14.60;52.50;;;;;;5070721;28;20205;-17
2022/03/19 01:33:08;;;;;;;2.87;2.03;;;14.60;52.40;;;;;;5071389;28;20268;-17
2022/03/19 01:35:33;;;;;;;2.40;1.80;;;14.50;52.50;;;;;;5062217;28;20238;-16
2022/03/19 01:37:59;;;;;;;2.83;2.10;;;14.50;52.40;;;;;;5073212;28;20182;-16
2022/03/19 01:40:25;;;;;;;3.63;2.10;;;14.50;52.40;;;;;;5072829;28;20175;-19
2022/03/19 01:42:52;;;;;;;2.87;1.93;;;14.50;52.40;;;;;;5073243;28;20673;-19
2022/03/19 01:45:23;;;;;;;2.40;1.97;;;14.50;52.40;;;;;;5072893;28;20186;-18
2022/03/19 01:47:49;;;;;;;3.80;2.03;;;14.50;52.40;;;;;;5072798;28;20258;-19
2022/03/19 01:50:17;;;;;;;2.23;1.90;;;14.50;52.40;;;;;;5074132;28;20167;-15
2022/03/19 01:52:44;;;;;;;2.40;2.07;;;14.50;52.40;;;;;;5074532;28;20178;-15
2022/03/19 01:55:11;;;;;;;2.57;2.00;;;14.40;52.30;;;;;;5074185;28;20178;-16
2022/03/19 01:57:41;;;;;;;2.50;2.07;;;14.40;52.40;;;;;;5072361;28;20183;-18
2022/03/19 02:00:09;;;;;;;2.60;2.00;;;14.40;52.30;;;;;;5054924;28;20197;-18
2022/03/19 02:02:36;;;;;;;3.17;2.00;;;14.40;52.30;;;;;;5054438;28;20211;-15
2022/03/19 02:05:03;;;;;;;4.40;2.50;;;14.40;52.40;;;;;;5074131;28;20184;-16
2022/03/19 02:07:33;;;;;;;4.33;2.50;;;14.40;52.30;;;;;;5073322;28;20170;-15
2022/03/19 02:10:00;;;;;;;4.67;2.20;;;14.40;52.30;;;;;;5073865;28;20190;-16
2022/03/19 02:12:26;;;;;;;3.30;2.10;;;14.40;52.40;;;;;;5073171;28;20204;-18
2022/03/19 02:14:53;;;;;;;3.13;2.30;;;14.30;52.30;;;;;;5060140;28;20556;-15
2022/03/19 02:17:19;;;;;;;3.80;2.40;;;14.30;52.20;;;;;;5054817;28;20478;-18
2022/03/19 02:19:50;;;;;;;3.87;2.20;;;14.30;52.30;;;;;;5055206;28;20272;-17
2022/03/19 02:22:17;;;;;;;2.67;2.07;;;14.30;52.30;;;;;;5074074;28;20548;-16
2022/03/19 02:27:27;;;;;;;2.57;2.10;;;14.30;52.30;;;;;;5077854;28;20276;-16
2022/03/19 02:29:53;;;;;;;3.07;2.13;;;14.30;52.30;;;;;;5077656;28;20199;-16
2022/03/19 02:32:18;;;;;;;3.20;2.10;;;14.30;52.40;;;;;;5059533;28;20213;-17
2022/03/19 02:34:44;;;;;;;2.63;2.30;;;14.30;52.30;;;;;;5077568;28;20187;-16
2022/03/19 02:37:10;;;;;;;2.30;1.90;;;14.20;52.30;;;;;;5077375;28;20210;-16
2022/03/19 02:39:36;;;;;;;3.10;2.10;;;14.20;52.20;;;;;;5059859;28;20274;-17
2022/03/19 02:42:05;;;;;;;3.00;2.30;;;14.20;52.30;;;;;;5077504;28;20211;-20
2022/03/19 02:44:31;;;;;;;2.83;2.27;;;14.20;52.40;;;;;;5075638;28;20241;-18
2022/03/19 02:47:00;;;;;;;3.13;2.40;;;14.20;52.30;;;;;;5060101;28;20248;-16
2022/03/19 02:49:26;;;;;;;4.87;2.33;;;14.20;52.30;;;;;;5058472;28;20440;-16
2022/03/19 02:51:54;;;;;;;3.70;2.10;;;14.20;52.30;;;;;;5058375;28;20871;-16
2022/03/19 02:54:22;;;;;;;2.50;2.10;;;14.20;52.30;;;;;;5059253;28;20567;-18
2022/03/19 02:56:48;;;;;;;3.23;2.20;;;14.20;52.30;;;;;;5063055;28;20560;-16
2022/03/19 02:59:18;;;;;;;4.67;2.20;;;14.10;52.30;;;;;;5085563;28;20190;-14
2022/03/19 03:01:44;;;;;;;3.40;2.13;;;14.10;52.30;;;;;;5082829;28;20173;-14
2022/03/19 03:04:10;;;;;;;2.50;1.80;;;14.10;52.30;;;;;;5069971;28;20254;-14
2022/03/19 03:06:38;;;;;;;4.07;2.43;;;14.10;52.30;;;;;;5061050;28;20209;-15
2022/03/19 03:09:05;;;;;;;4.23;2.30;;;14.10;52.30;;;;;;5077411;28;20178;-16
2022/03/19 03:11:31;;;;;;;3.67;2.10;;;14.10;52.30;;;;;;5076123;28;20418;-17
2022/03/19 03:13:57;;;;;;;4.23;2.40;;;14.10;52.30;;;;;;5059412;28;20172;-15
2022/03/19 03:16:26;;;;;;;4.13;2.30;;;14.10;52.30;;;;;;5059527;28;20590;-16
2022/03/19 03:18:54;;;;;;;4.83;2.33;;;14.00;52.30;;;;;;5059657;28;20181;-15
2022/03/19 03:21:20;;;;;;;3.63;2.20;;;14.10;52.30;;;;;;5058046;28;20183;-15
2022/03/19 03:23:45;;;;;;;3.23;2.10;;;14.00;52.30;;;;;;5076073;28;20202;-14
2022/03/19 03:26:11;;;;;;;3.93;2.30;;;14.00;52.30;;;;;;5076394;28;20234;-17
2022/03/19 03:28:37;;;;;;;3.40;2.10;;;14.00;52.20;;;;;;5075039;28;20239;-17
2022/03/19 03:31:03;;;;;;;2.80;2.20;;;14.00;52.20;;;;;;5058175;28;20328;-16
2022/03/19 03:33:29;;;;;;;3.70;2.10;;;14.00;52.30;;;;;;5059606;28;20177;-15
2022/03/19 03:35:55;;;;;;;2.63;2.10;;;14.00;52.30;;;;;;5059035;28;20206;-16
2022/03/19 03:38:21;;;;;;;3.27;2.17;;;14.00;52.30;;;;;;5059974;28;20503;-16
2022/03/19 03:40:46;;;;;;;3.43;2.47;;;13.90;52.30;;;;;;5076446;28;20182;-15
2022/03/19 03:43:12;;;;;;;2.90;2.20;;;14.00;52.30;;;;;;5058562;28;20480;-17
2022/03/19 03:45:38;;;;;;;3.00;2.20;;;13.90;52.20;;;;;;5075959;28;20239;-17
2022/03/19 03:48:04;;;;;;;3.93;2.20;;;13.90;52.30;;;;;;5076065;28;20168;-15
2022/03/19 03:50:31;;;;;;;3.60;2.53;;;13.90;52.30;;;;;;5075911;28;20192;-16
2022/03/19 03:52:57;;;;;;;3.43;2.40;;;13.90;52.30;;;;;;5066189;28;20191;-15
2022/03/19 03:55:23;;;;;;;4.30;2.37;;;13.90;52.30;;;;;;5056821;28;20190;-15
2022/03/19 03:57:49;;;;;;;3.27;2.37;;;13.90;52.30;;;;;;5057662;28;20196;-16
2022/03/19 04:00:15;;;;;;;2.77;2.27;;;13.90;52.30;;;;;;5074633;28;20655;-16
2022/03/19 04:02:41;;;;;;;3.90;2.60;;;13.90;52.30;;;;;;5074522;28;20184;-17
2022/03/19 04:05:08;;;;;;;3.57;2.33;;;13.90;52.30;;;;;;5058176;28;20566;-14
2022/03/19 04:07:34;;;;;;;5.50;2.40;;;13.90;52.30;;;;;;5075758;28;20513;-15
2022/03/19 04:10:00;;;;;;;3.60;2.40;;;13.90;52.20;;;;;;5057169;28;20170;-19
2022/03/19 04:12:26;;;;;;;3.90;2.70;;;13.80;52.20;;;;;;5057082;28;20235;-15
2022/03/19 04:14:54;;;;;;;4.97;2.83;;;13.80;52.20;;;;;;5076569;28;20183;-16
2022/03/19 04:17:20;;;;;;;4.80;2.53;;;13.80;52.30;;;;;;5075980;28;20213;-15
2022/03/19 04:19:46;;;;;;;4.33;2.90;;;13.80;52.30;;;;;;5057132;28;20217;-16
2022/03/19 04:22:12;;;;;;;4.03;2.73;;;13.80;52.30;;;;;;5074546;28;20185;-14
2022/03/19 04:24:38;;;;;;;4.10;2.60;;;13.80;52.20;;;;;;5074083;28;20361;-15
2022/03/19 04:27:04;;;;;;;3.80;2.50;;;13.80;52.30;;;;;;5055963;28;20173;-15
2022/03/19 04:29:30;;;;;;;4.07;2.70;;;13.70;52.20;;;;;;5075309;28;20235;-15
2022/03/19 04:31:56;;;;;;;4.47;2.60;;;13.70;52.30;;;;;;5056881;28;20178;-15
2022/03/19 04:34:22;;;;;;;4.70;2.70;;;13.70;52.20;;;;;;5075933;28;20187;-15
2022/03/19 04:36:48;;;;;;;4.10;2.77;;;13.70;52.20;;;;;;5074758;28;20178;-15
2022/03/19 04:39:14;;;;;;;4.53;2.67;;;13.70;52.20;;;;;;5075665;28;20223;-16
2022/03/19 04:41:41;;;;;;;4.57;2.73;;;13.60;52.20;;;;;;5057154;28;20216;-18
2022/03/19 04:44:08;;;;;;;4.73;2.73;;;13.60;52.20;;;;;;5074194;28;20210;-15
2022/03/19 04:46:34;;;;;;;4.17;2.73;;;13.60;52.30;;;;;;5063877;28;20201;-14
2022/03/19 04:49:00;;;;;;;4.20;2.67;;;13.60;52.30;;;;;;5088188;28;20190;-14
2022/03/19 04:51:34;;;;;;;5.33;2.90;;;13.60;52.30;;;;;;5076823;28;20471;-14
2022/03/19 04:54:00;;;;;;;4.27;2.80;;;13.50;52.20;;;;;;5082248;28;20185;-14
2022/03/19 04:56:28;;;;;;;4.17;2.70;;;13.50;52.30;;;;;;5065212;28;20274;-14
2022/03/19 04:58:56;;;;;;;4.10;2.87;;;13.50;52.30;;;;;;5090370;28;20252;-16
2022/03/19 05:01:29;;;;;;;4.47;2.77;;;13.50;52.30;;;;;;5055688;28;20280;-14
2022/03/19 05:03:55;;;;;;;3.60;2.50;;;13.50;52.30;;;;;;5085660;28;20241;-14
2022/03/19 05:06:21;;;;;;;3.50;2.60;;;13.50;52.30;;;;;;5088086;28;20223;-14
2022/03/19 05:11:12;;;;;;;4.23;2.57;;;13.40;52.30;;;;;;5071606;28;20439;-14
2022/03/19 05:11:35;;;;;;;4.47;2.87;;;13.50;52.40;;;;;;5087853;28;20261;-15
2022/03/19 05:14:01;;;;;;;4.60;2.67;;;13.40;52.30;;;;;;5092508;28;21060;-14
2022/03/19 05:16:27;;;;;;;4.17;2.70;;;13.40;52.40;;;;;;5064021;28;20582;-14
2022/03/19 05:18:52;;;;;;;4.67;2.53;;;13.40;52.40;;;;;;5074852;28;20187;-14
2022/03/19 05:21:18;;;;;;;3.73;2.43;;;13.40;52.40;;;;;;5084154;28;20192;-14
2022/03/19 05:23:47;;;;;;;3.80;2.67;;;13.40;52.30;;;;;;5093996;28;20241;-14
2022/03/19 05:26:13;;;;;;;2.97;2.13;;;13.30;52.40;;;;;;5086398;28;20267;-14
2022/03/19 05:28:39;;;;;;;3.20;2.30;;;13.30;52.40;;;;;;5075403;28;20621;-14
2022/03/19 05:31:07;;;;;;;5.90;2.80;;;13.30;52.40;;;;;;5061268;28;20182;-14
2022/03/19 05:36:17;;;;;;;3.50;2.30;;;13.30;52.40;;;;;;5087415;28;20195;-17
2022/03/19 05:38:42;;;;;;;3.17;2.30;;;13.30;52.40;;;;;;5090966;28;20179;-17
2022/03/19 05:41:08;;;;;;;3.57;2.30;;;13.30;52.40;;;;;;5089616;28;20184;-14
2022/03/19 05:43:34;;;;;;;3.17;2.50;;;13.30;52.40;;;;;;5091985;28;20219;-16
2022/03/19 05:46:00;;;;;;;3.07;2.13;;;13.30;52.30;;;;;;5063087;28;20462;-16
2022/03/19 05:48:25;;;;;;;2.53;2.03;;;13.30;52.40;;;;;;5073568;28;20570;-14
2022/03/19 05:50:53;;;;;;;2.70;2.07;;;13.30;52.40;;;;;;5073404;28;20184;-14
2022/03/19 05:53:18;;;;;;;3.27;2.17;;;13.30;52.30;;;;;;5073975;28;20174;-15
2022/03/19 05:55:44;;;;;;;2.30;2.10;;;13.20;52.30;;;;;;5056114;28;20182;-17
2022/03/19 05:58:09;;;;;;;4.27;2.80;;;13.20;52.30;;;;;;5056300;28;20554;-15
2022/03/19 06:00:35;;;;;;;3.97;2.33;;;13.20;52.30;;;;;;5054694;28;20186;-15
2022/03/19 06:03:01;;;;;;;4.60;2.33;;;13.20;52.30;;;;;;5055988;28;20240;-14
2022/03/19 06:05:26;;;;;;;4.60;2.50;;;13.20;52.20;;;;;;5055245;28;20174;-14
2022/03/19 06:07:54;;;;;;;3.23;2.40;;;13.30;52.30;;;;;;5064126;28;20261;-15
2022/03/19 06:10:20;;;;;;;3.57;2.23;;;13.20;52.30;;;;;;5054982;28;20178;-15
2022/03/19 06:12:46;;;;;;;2.20;1.93;;;13.20;52.20;;;;;;5072571;28;20429;-14
2022/03/19 06:15:12;;;;;;;3.83;2.53;;;13.20;52.20;;;;;;5055548;28;20415;-20
2022/03/19 06:17:38;;;;;;;3.23;2.13;;;13.20;52.10;;;;;;5072448;28;20250;-13
2022/03/19 06:20:04;;;;;;;4.40;2.70;;;13.30;52.10;;;;;;5082489;28;20175;-15
2022/03/19 06:22:30;;;;;;;4.57;2.53;;;13.30;51.90;;;;;;5068579;28;20682;-15
2022/03/19 06:24:56;;;;;;;3.30;2.40;;;13.40;51.80;;;;;;5051765;28;20323;-15
2022/03/19 06:27:22;;;;;;;3.47;2.60;;;13.50;51.70;;;;;;5073157;28;20568;-14
2022/03/19 06:29:48;;;;;;;5.43;2.87;;;13.60;51.50;;;;;;5055167;28;20244;-15
2022/03/19 06:32:20;;;;;;;4.23;2.70;;;13.70;51.30;;;;;;5053173;28;20319;-15
2022/03/19 06:34:49;;;;;;;4.03;2.57;;;13.80;51.00;;;;;;5066212;28;20235;-16
2022/03/19 06:37:22;;;;;;;4.47;2.70;;;13.80;50.80;;;;;;5036914;28;20257;-15
2022/03/19 06:39:49;;;;;;;3.70;2.80;;;13.90;50.60;;;;;;5054486;28;20180;-15
2022/03/19 06:42:15;;;;;;;6.00;3.17;;;13.90;50.60;;;;;;5072691;28;20451;-15
2022/03/19 06:44:41;;;;;;;5.63;2.97;;;14.00;50.60;;;;;;5055261;28;20217;-15
2022/03/19 06:47:07;;;;;;;3.67;2.70;;;14.00;50.50;;;;;;5068419;28;20189;-16
2022/03/19 06:49:33;;;;;;;4.57;2.60;;;14.10;50.40;;;;;;5073115;28;20170;-15
2022/03/19 06:51:59;;;;;;;4.33;3.03;;;14.20;50.50;;;;;;5055952;28;20177;-16
2022/03/19 06:54:24;;;;;;;4.90;2.83;;;14.20;50.30;;;;;;5053946;28;20424;-17
2022/03/19 06:56:52;;;;;;;4.43;3.07;;;14.30;50.30;;;;;;5053088;28;20252;-17
2022/03/19 06:59:18;;;;;;;3.83;2.97;;;14.30;50.20;;;;;;5069577;28;20253;-15
2022/03/19 07:01:43;;;;;;;4.43;2.83;;;14.40;50.20;;;;;;5050420;28;20183;-17
2022/03/19 07:04:09;;;;;;;5.63;3.00;;;14.50;50.10;;;;;;5048482;28;20248;-17
2022/03/19 07:06:35;;;;;;;4.20;2.73;;;14.60;50.00;;;;;;5053253;28;20241;-16
2022/03/19 07:09:00;;;;;;;6.60;3.17;;;14.70;50.00;;;;;;5053163;28;20377;-15
2022/03/19 07:11:26;;;;;;;6.03;2.80;;;14.80;49.90;;;;;;5071791;28;20187;-16
2022/03/19 07:13:52;;;;;;;4.50;2.80;;;14.90;49.70;;;;;;5074328;28;20184;-15
2022/03/19 07:16:18;;;;;;;5.63;3.20;;;15.00;49.60;;;;;;5053679;28;20185;-18
2022/03/19 07:18:43;;;;;;;5.37;2.83;;;15.10;49.40;;;;;;5073702;28;20304;-18
2022/03/19 07:21:10;;;;;;;4.90;2.83;;;15.10;49.60;;;;;;5075071;28;20183;-16
2022/03/19 07:23:36;;;;;;;4.23;2.80;;;15.20;49.00;;;;;;5055710;28;20211;-15
2022/03/19 07:26:02;;;;;;;4.93;2.83;;;15.30;48.80;;;;;;5053368;28;20182;-19
2022/03/19 07:28:28;;;;;;;4.23;2.80;;;15.40;48.70;;;;;;5073605;28;20175;-18
2022/03/19 07:30:55;;;;;;;5.63;3.03;;;15.40;48.60;;;;;;5057994;28;20210;-18
2022/03/19 07:33:21;;;;;;;4.37;2.70;;;15.50;48.50;;;;;;5052097;28;20237;-14
2022/03/19 07:35:46;;;;;;;6.27;2.90;;;15.60;48.50;;;;;;5055364;28;20187;-15
2022/03/19 07:38:12;;;;;;;5.93;3.17;;;15.70;48.40;;;;;;5057117;28;20183;-17
2022/03/19 07:43:24;;;;;;;4.60;2.70;;;15.80;48.10;;;;;;5073914;28;20297;-20
2022/03/19 07:45:51;;;;;;;4.37;2.80;;;15.90;48.10;;;;;;5074280;28;20187;-17
2022/03/19 07:48:19;;;;;;;4.47;2.63;;;16.00;47.90;;;;;;5075008;28;20502;-16
2022/03/19 07:50:45;;;;;;;5.97;2.90;;;16.10;47.90;;;;;;5074115;28;20182;-18
2022/03/19 07:53:11;;;;;;;4.23;2.83;;;16.20;47.60;;;;;;5056536;28;20175;-16
2022/03/19 07:55:37;;;;;;;4.50;2.70;;;16.20;47.50;;;;;;5074625;28;20171;-18
2022/03/19 07:58:04;;;;;;;5.83;2.87;;;16.40;47.40;;;;;;5051290;28;20183;-20
2022/03/19 08:00:30;;;;;;;4.53;2.70;;;16.50;47.50;;;;;;5072716;28;20179;-17
2022/03/19 08:02:55;;;;;;;4.33;2.80;;;16.50;47.30;;;;;;5055982;28;20226;-16
2022/03/19 08:05:21;;;;;;;5.93;2.80;;;16.60;47.20;;;;;;5053145;28;20263;-18
2022/03/19 08:07:47;;;;;;;4.27;3.00;;;16.70;47.10;;;;;;5070982;28;20307;-16
2022/03/19 08:10:13;;;;;;;4.70;3.00;;;16.70;47.00;;;;;;5073366;28;20208;-17
2022/03/19 08:12:42;;;;;;;4.40;2.87;;;16.80;47.10;;;;;;5072712;28;20240;-18
2022/03/19 08:15:09;;;;;;;4.30;2.60;;;16.90;46.90;;;;;;5072935;28;20181;-16
2022/03/19 08:17:37;;;;;;;4.30;2.63;;;17.00;46.90;;;;;;5072268;28;20433;-17
2022/03/19 08:20:06;;;;;;;5.67;3.47;;;17.10;46.70;;;;;;5072591;28;20509;-16
2022/03/19 08:22:32;;;;;;;4.27;2.70;;;17.20;46.70;;;;;;5072523;28;20509;-17
2022/03/19 08:24:59;;;;;;;4.60;2.80;;;17.30;46.80;;;;;;5054568;28;20677;-18
2022/03/19 08:27:26;;;;;;;6.27;2.80;;;17.30;46.50;;;;;;5069826;28;20477;-20
2022/03/19 08:29:52;;;;;;;5.17;3.00;;;17.40;46.50;;;;;;5071004;28;20186;-18
2022/03/19 08:32:18;;;;;;;6.10;2.90;;;17.50;46.50;;;;;;5069709;28;20256;-19
2022/03/19 08:34:44;;;;;;;5.87;2.97;;;17.50;46.50;;;;;;5070250;28;20382;-16
2022/03/19 08:37:11;;;;;;;4.73;3.27;;;17.50;46.40;;;;;;5069022;28;20198;-18
2022/03/19 08:42:22;;;;;;;5.03;2.87;;;17.60;46.30;;;;;;5068344;28;20364;-16
2022/03/19 08:44:49;;;;;;;4.80;3.10;;;17.70;46.20;;;;;;5049632;28;20220;-18
2022/03/19 08:47:15;;;;;;;4.47;2.70;;;17.70;46.30;;;;;;5051486;28;20179;-18
2022/03/19 08:49:41;;;;;;;5.37;3.03;;;17.80;46.20;;;;;;5068749;28;20180;-20
2022/03/19 08:52:07;;;;;;;5.60;2.90;;;17.80;46.10;;;;;;5053496;28;20167;-18
2022/03/19 08:54:33;;;;;;;4.97;2.90;;;17.90;46.10;;;;;;5072893;28;20180;-18
2022/03/19 08:56:59;;;;;;;3.63;2.30;;;17.90;46.00;;;;;;5053440;28;20237;-19
2022/03/19 08:59:25;;;;;;;3.63;2.53;;;18.00;46.00;;;;;;5069691;28;20186;-18
2022/03/19 09:01:52;;;;;;;5.60;2.87;;;18.20;46.00;;;;;;5070275;28;20254;-21
2022/03/19 09:04:19;;;;;;;5.30;2.97;;;18.10;45.80;;;;;;5071350;28;20203;-19
2022/03/19 09:06:45;;;;;;;6.93;2.90;;;18.10;45.90;;;;;;5070187;28;20172;-20
2022/03/19 09:09:13;;;;;;;4.73;2.80;;;18.20;45.80;;;;;;5051881;28;20168;-18
2022/03/19 09:11:39;;;;;;;4.47;2.83;;;18.20;46.00;;;;;;5070151;28;20210;-20
2022/03/19 09:14:07;;;;;;;4.53;2.80;;;18.30;45.80;;;;;;5072854;28;20167;-21
2022/03/19 09:16:35;;;;;;;6.13;2.80;;;18.30;45.80;;;;;;5057073;28;20183;-17
2022/03/19 09:19:01;;;;;;;5.13;3.07;;;18.30;45.80;;;;;;5064035;28;20244;-16
2022/03/19 09:21:29;;;;;;;5.13;2.70;;;18.40;45.90;;;;;;5058378;28;20183;-18
2022/03/19 09:23:57;;;;;;;3.20;2.23;;;18.40;45.70;;;;;;5084597;28;20579;-16
2022/03/19 09:26:23;;;;;;;4.30;2.90;;;18.50;45.60;;;;;;5077389;28;20179;-16
2022/03/19 09:28:49;;;;;;;6.27;2.80;;;18.60;45.60;;;;;;5072326;28;20172;-18
2022/03/19 09:31:17;;;;;;;4.57;2.57;;;18.60;45.70;;;;;;5077783;28;20262;-16
2022/03/19 09:33:47;;;;;;;5.30;2.93;;;18.50;45.60;;;;;;5072856;28;20456;-16
2022/03/19 09:36:15;;;;;;;5.13;2.63;;;18.20;45.70;;;;;;5080576;28;20320;-17
2022/03/19 09:38:41;;;;;;;5.77;2.80;;;17.90;45.90;;;;;;5074292;28;20187;-17
2022/03/19 09:41:07;;;;;;;5.23;2.60;;;17.50;46.40;;;;;;5053262;28;20179;-16
2022/03/19 09:43:34;;;;;;;3.83;2.20;;;17.10;46.90;;;;;;5070837;28;20633;-18
2022/03/19 09:46:01;;;;;;;3.50;2.40;;;16.90;47.40;;;;;;5069344;28;20176;-18
2022/03/19 09:48:27;;;;;;;3.67;2.30;;;16.60;47.70;;;;;;5060932;28;20549;-20
2022/03/19 09:50:54;;;;;;;4.03;2.50;;;16.50;48.10;;;;;;5056056;28;20237;-17
2022/03/19 09:53:23;;;;;;;4.00;2.60;;;16.30;48.20;;;;;;5082309;28;20186;-18
2022/03/19 09:55:50;;;;;;;4.93;2.50;;;16.20;48.80;;;;;;5068514;28;20490;-20
2022/03/19 09:58:16;;;;;;;4.17;2.40;;;16.10;48.50;;;;;;5056831;28;20179;-17
2022/03/19 10:00:43;;;;;;;4.17;2.57;;;16.10;48.70;;;;;;5058496;28;20175;-19
2022/03/19 10:03:11;;;;;;;3.70;2.30;;;16.00;48.70;;;;;;5071914;28;20220;-20
2022/03/19 10:08:36;;;;;;;5.73;2.73;;;15.90;48.90;;;;;;5078859;28;20617;-19
2022/03/19 10:11:15;;;;;;;7.27;2.50;;;15.90;49.30;;;;;;5085941;28;20172;-16
2022/03/19 10:13:46;;;;;;;3.00;2.10;;;15.90;49.00;;;;;;5077421;28;20179;-17
2022/03/19 10:16:24;;;;;;;3.73;2.30;;;15.90;49.00;;;;;;5077311;28;20563;-16
2022/03/19 10:19:00;;;;;;;4.47;2.50;;;15.80;48.80;;;;;;5050399;28;20187;-21
2022/03/19 10:21:27;;;;;;;4.00;2.07;;;15.80;48.90;;;;;;5056269;28;20190;-15
2022/03/19 10:23:55;;;;;;;3.57;2.60;;;15.70;48.80;;;;;;5076194;28;20228;-19
2022/03/19 10:26:26;;;;;;;3.93;2.10;;;15.70;48.90;;;;;;5049603;28;20532;-20
2022/03/19 10:29:05;;;;;;;3.33;2.10;;;15.60;48.80;;;;;;5066799;28;20189;-18
2022/03/19 10:31:46;;;;;;;5.30;2.10;;;15.60;48.80;;;;;;5048896;28;20182;-16
2022/03/19 10:34:14;;;;;;;5.47;2.17;;;15.60;48.90;;;;;;5076917;28;20573;-17
2022/03/19 10:36:41;;;;;;;4.73;2.20;;;15.60;48.90;;;;;;5077474;28;20255;-20
2022/03/19 10:39:10;;;;;;;4.37;2.20;;;15.60;48.90;;;;;;5077488;28;20186;-16
2022/03/19 10:41:38;;;;;;;3.83;1.90;;;15.60;49.00;;;;;;5075857;28;20226;-18
2022/03/19 10:44:12;;;;;;;5.07;2.23;;;15.50;48.80;;;;;;5072074;28;20210;-20
2022/03/19 10:46:38;;;;;;;5.57;2.10;;;15.50;49.30;;;;;;5067280;28;20242;-18
2022/03/19 10:49:13;;;;;;;3.13;1.87;;;15.50;48.70;;;;;;5076287;28;20178;-19
2022/03/19 10:51:40;;;;;;;2.83;1.70;;;15.50;48.70;;;;;;5076158;28;20172;-17
2022/03/19 10:54:11;;;;;;;4.10;2.00;;;15.50;48.70;;;;;;5068857;28;20168;-16
2022/03/19 10:56:37;;;;;;;3.03;1.90;;;15.40;48.50;;;;;;5051926;28;20325;-17
2022/03/19 10:59:03;;;;;;;3.00;1.70;;;15.40;48.40;;;;;;5058535;28;20265;-18
2022/03/19 11:01:30;;;;;;;3.50;1.77;;;15.40;48.30;;;;;;5054055;28;20533;-20
2022/03/19 11:03:56;;;;;;;3.87;1.60;;;15.30;48.30;;;;;;5058293;28;20263;-16
2022/03/19 11:06:24;;;;;;;5.57;1.90;;;15.30;48.30;;;;;;5057693;28;20173;-19
2022/03/19 11:08:51;;;;;;;3.60;1.67;;;15.30;48.10;;;;;;5074568;28;20171;-19
2022/03/19 11:11:22;;;;;;;4.27;1.90;;;15.30;47.90;;;;;;5075533;28;20163;-16
2022/03/19 11:13:49;;;;;;;2.90;1.50;;;15.20;47.90;;;;;;5069614;28;20214;-20
2022/03/19 11:16:17;;;;;;;2.57;1.60;;;15.20;47.90;;;;;;5077141;28;20227;-17
2022/03/19 11:18:44;;;;;;;2.50;1.50;;;15.20;47.90;;;;;;5055593;28;20179;-21
2022/03/19 11:21:10;;;;;;;3.50;1.60;;;15.10;47.80;;;;;;5055105;28;20454;-16
2022/03/19 11:23:54;;;;;;;3.50;1.40;;;15.10;47.80;;;;;;5074107;28;20191;-18
2022/03/19 11:26:26;;;;;;;2.53;1.43;;;15.10;47.80;;;;;;5073611;28;20186;-17
2022/03/19 11:28:52;;;;;;;3.73;1.43;;;15.10;47.60;;;;;;5074101;28;20726;-18
2022/03/19 11:31:25;;;;;;;2.33;1.47;;;15.10;47.60;;;;;;5074223;28;20546;-21
2022/03/19 11:33:51;;;;;;;3.03;1.40;;;15.00;47.40;;;;;;5074090;28;20459;-16
2022/03/19 11:36:18;;;;;;;3.20;1.47;;;15.00;47.50;;;;;;5076725;28;20171;-21
2022/03/19 11:38:54;;;;;;;2.00;1.40;;;15.00;47.40;;;;;;5076187;28;20182;-19
2022/03/19 11:41:25;;;;;;;2.23;1.27;;;15.00;47.50;;;;;;5074277;28;20179;-18
2022/03/19 11:44:27;;;;;;;2.80;1.30;;;15.00;47.30;;;;;;5077601;28;20610;-18
2022/03/19 11:47:09;;;;;;;2.07;1.30;;;14.90;47.30;;;;;;5075197;28;20160;-17
2022/03/19 11:49:52;;;;;;;2.10;1.20;;;14.90;47.20;;;;;;5051405;28;20433;-17
2022/03/19 11:52:38;;;;;;;2.53;1.37;;;14.90;47.00;;;;;;5067613;28;20183;-18
2022/03/19 11:55:10;;;;;;;3.17;1.20;;;14.80;46.90;;;;;;5056177;28;20235;-16
2022/03/19 11:57:56;;;;;;;2.27;1.30;;;14.80;46.90;;;;;;5068810;28;20590;-18
2022/03/19 12:00:27;;;;;;;2.50;1.50;;;14.80;46.80;;;;;;5072869;28;20209;-21
2022/03/19 12:03:12;;;;;;;2.60;1.10;;;14.80;46.80;;;;;;5052634;28;20189;-17
2022/03/19 12:05:45;;;;;;;2.00;1.13;;;14.80;46.80;;;;;;5051096;28;20655;-18
2022/03/19 12:08:22;;;;;;;2.20;1.20;;;14.80;46.80;;;;;;5066949;28;20567;-16
2022/03/19 12:10:59;;;;;;;2.17;1.00;;;14.70;46.80;;;;;;5050790;28;20255;-16
2022/03/19 12:13:28;;;;;;;2.10;1.20;;;14.70;46.90;;;;;;5046127;28;20181;-15
2022/03/19 12:16:04;;;;;;;2.57;1.20;;;14.70;46.90;;;;;;5067569;28;20168;-16
2022/03/19 12:18:42;;;;;;;3.23;1.20;;;14.70;46.90;;;;;;5050102;28;20287;-16
2022/03/19 12:21:11;;;;;;;2.43;1.10;;;14.70;46.80;;;;;;5045728;28;20189;-18
2022/03/19 12:23:44;;;;;;;2.63;1.20;;;14.70;46.90;;;;;;5065594;28;20200;-15
2022/03/19 12:26:12;;;;;;;3.33;1.10;;;14.70;46.90;;;;;;5069767;28;20738;-17
2022/03/19 12:28:39;;;;;;;1.80;1.13;;;14.70;47.20;;;;;;5051586;28;20233;-18
2022/03/19 12:31:07;;;;;;;2.67;1.20;;;14.60;46.60;;;;;;5066503;28;20294;-15
2022/03/19 12:33:36;;;;;;;2.90;1.43;;;14.60;46.50;;;;;;5055900;28;20249;-17
2022/03/19 12:36:19;;;;;;;2.73;1.00;;;14.60;46.50;;;;;;5075734;28;20279;-18
2022/03/19 12:38:46;;;;;;;1.83;1.20;;;14.60;46.30;;;;;;5057888;28;20168;-19
2022/03/19 12:41:33;;;;;;;2.00;1.00;;;14.60;46.40;;;;;;5046077;28;20184;-18
2022/03/19 12:44:07;;;;;;;2.17;1.20;;;14.60;46.40;;;;;;5052103;28;20231;-15
2022/03/19 12:46:35;;;;;;;1.70;1.30;;;14.60;46.20;;;;;;5067035;28;20541;-16
2022/03/19 12:49:12;;;;;;;2.57;1.30;;;14.60;46.30;;;;;;5049396;28;20176;-17
2022/03/19 12:51:43;;;;;;;1.93;1.20;;;14.50;46.20;;;;;;5034307;28;20419;-15
2022/03/19 12:54:29;;;;;;;2.67;1.40;;;14.50;46.20;;;;;;5048508;28;20168;-15
2022/03/19 12:57:06;;;;;;;2.40;1.40;;;14.50;46.20;;;;;;5058648;28;20432;-16
2022/03/19 12:59:32;;;;;;;1.80;1.07;;;14.50;46.10;;;;;;5045878;28;20441;-16
2022/03/19 13:01:59;;;;;;;2.20;1.10;;;14.50;46.10;;;;;;5068777;28;20172;-17
2022/03/19 13:04:30;;;;;;;1.70;1.07;;;14.50;46.10;;;;;;5049520;28;20290;-17